Weather reports worldwide

Advertisment
Molina De Aragon, Spain (8232): temperature & dewpoint: 10.01.2018 20:00:00 - 16.01.2018 20:00:00 (CET)Molina De Aragon, Spain (8232): wind speed: 10.01.2018 20:00:00 - 16.01.2018 20:00:00 (CET)Molina De Aragon, Spain (8232): wind direction: 10.01.2018 20:00:00 - 16.01.2018 20:00:00 (CET)Molina De Aragon, Spain (8232): visibility: 10.01.2018 20:00:00 - 16.01.2018 20:00:00 (CET)Molina De Aragon, Spain (8232): precipitation: 10.01.2018 20:00:00 - 16.01.2018 20:00:00 (CET)
Date & Time tt [°C] td [°C] ff [km/h] ff [kn] dd vv [km] rr [mm]
16.01.2018 20:00:00 7,1 4,4 13 7 W 20 0,0
16.01.2018 19:00:00 8,0 4,4 11 6 W 20 -
16.01.2018 18:00:00 9,7 4,5 8 4 W 20 0,0
16.01.2018 17:00:00 11,8 5,2 13 7 W 20 0,0
16.01.2018 16:00:00 11,8 5,4 13 7 W 20 -
16.01.2018 15:00:00 12,0 5,6 11 6 WSW 20 0,0
16.01.2018 14:00:00 11,6 5,2 11 6 WNW 20 0,0
16.01.2018 13:00:00 8,3 4,9 8 4 WSW 20 -
16.01.2018 12:00:00 5,8 3,3 4 2 W 20 0,0
16.01.2018 11:00:00 3,0 0,6 2 1 ENE 20 0,0
16.01.2018 10:00:00 1,6 -0,2 2 1 ENE 20 -
16.01.2018 09:00:00 0,2 -1,2 2 1 S 20 0,0
16.01.2018 08:00:00 -0,2 -1,6 4 2 SSE 20 0,0
16.01.2018 07:00:00 0,0 -1,4 2 1 WNW 20 -
16.01.2018 06:00:00 -0,1 -1,5 2 1 ESE 20 0,0
16.01.2018 05:00:00 0,0 -1,0 2 1 SSE 20 0,0
16.01.2018 04:00:00 -2,0 -3,0 2 1 ENE 19 -
16.01.2018 03:00:00 -1,3 -2,7 2 1 SW 19 0,0
16.01.2018 02:00:00 0,0 -1,9 2 1 E 20 0,0
16.01.2018 01:00:00 1,2 -1,0 8 4 W 20 -
16.01.2018 00:00:00 1,6 -0,7 8 4 W 20 0,0
15.01.2018 23:00:00 1,4 -1,0 5 3 W 20 0,0
15.01.2018 22:00:00 1,7 -2,1 2 1 SSE 20 -
15.01.2018 21:00:00 2,9 -1,5 9 5 WSW 20 0,0
15.01.2018 20:00:00 4,2 -0,8 9 5 WSW 20 0,0
15.01.2018 19:00:00 4,2 -0,4 5 3 WSW 20 -
15.01.2018 18:00:00 5,1 -0,5 8 4 WSW 20 0,0
15.01.2018 17:00:00 6,1 -0,9 9 5 W 20 0,0
15.01.2018 16:00:00 6,7 -0,3 9 5 W 20 -
15.01.2018 15:00:00 7,3 0,9 9 5 WSW 20 0,0
15.01.2018 14:00:00 5,8 0,7 5 3 WSW 20 0,0
15.01.2018 13:00:00 3,7 0,2 4 2 SSW 20 -
15.01.2018 12:00:00 1,3 0,1 4 2 W 20 0,0
15.01.2018 11:00:00 -0,6 -1,3 8 4 W 19 0,0
15.01.2018 10:00:00 -1,6 -2,0 4 2 W 20 -
15.01.2018 09:00:00 -2,7 -3,4 2 1 WNW 17 0,0
15.01.2018 08:00:00 -1,7 -2,4 4 2 ENE 20 0,0
15.01.2018 07:00:00 -1,3 -1,9 0 0 N 20 -
15.01.2018 06:00:00 -1,5 -1,9 2 1 SSE 20 0,0
15.01.2018 05:00:00 -1,9 -2,3 4 2 S 20 0,0
15.01.2018 04:00:00 -2,6 -3,0 2 1 ENE 20 -
15.01.2018 03:00:00 -3,5 -4,2 2 1 NNE 20 0,0
15.01.2018 02:00:00 -2,9 -3,7 2 1 ESE 20 0,0
15.01.2018 01:00:00 -2,0 -2,8 2 1 WNW 20 -
15.01.2018 00:00:00 -1,3 -2,7 2 1 NNE 20 0,0
14.01.2018 23:00:00 0,2 -1,4 2 1 WSW 20 0,0
14.01.2018 22:00:00 1,3 -0,8 4 2 NW 20 -
14.01.2018 21:00:00 1,7 -0,7 4 2 NW 20 0,0
14.01.2018 20:00:00 2,0 -0,8 5 3 WNW 20 0,0
14.01.2018 19:00:00 2,1 -1,0 5 3 WNW 19 -
14.01.2018 18:00:00 2,4 -1,6 5 3 NW 20 0,0
14.01.2018 17:00:00 4,1 -0,5 8 4 W 20 0,0
14.01.2018 16:00:00 3,3 -1,1 8 4 W 20 -
14.01.2018 15:00:00 3,4 -0,8 9 5 WSW 20 0,0
14.01.2018 14:00:00 3,4 -0,1 9 5 W 20 0,0
14.01.2018 13:00:00 3,1 0,0 8 4 W 20 -
14.01.2018 12:00:00 2,6 0,0 5 3 W 20 0,0
14.01.2018 11:00:00 1,8 0,0 9 5 WSW 20 0,0
14.01.2018 10:00:00 1,0 -0,3 9 5 W 20 -
14.01.2018 09:00:00 0,7 -0,5 8 4 W 19 0,0
14.01.2018 08:00:00 0,6 -0,7 8 4 W 20 0,0
14.01.2018 07:00:00 0,7 -0,2 9 5 W 16 -
14.01.2018 06:00:00 0,6 -0,1 9 5 W 7 0,0
14.01.2018 05:00:00 0,9 -0,3 8 4 W 19 0,0
14.01.2018 04:00:00 0,9 -0,3 9 5 WSW 20 -
14.01.2018 03:00:00 0,9 -0,3 11 6 WSW 20 0,0
14.01.2018 02:00:00 1,1 -0,1 11 6 W 20 0,0
14.01.2018 01:00:00 1,3 0,0 15 8 W 20 -
14.01.2018 00:00:00 1,5 0,3 11 6 W 20 0,0
13.01.2018 23:00:00 1,6 0,6 13 7 WSW 19 0,0
13.01.2018 22:00:00 1,6 0,4 11 6 WSW 20 -
13.01.2018 21:00:00 1,4 0,5 8 4 W 20 0,0
13.01.2018 20:00:00 1,2 0,3 8 4 WSW 6 0,4
13.01.2018 19:00:00 2,1 0,3 5 3 NW 9 -
13.01.2018 18:00:00 2,5 -0,3 4 2 SW 20 0,0
13.01.2018 17:00:00 4,4 -1,4 13 7 SW 20 0,0
13.01.2018 16:00:00 5,7 -2,7 13 7 WSW 20 -
13.01.2018 15:00:00 7,1 -2,4 9 5 WSW 20 0,0
13.01.2018 14:00:00 6,4 -1,5 8 4 W 20 0,0
13.01.2018 13:00:00 2,6 0,5 2 1 SE 20 -
13.01.2018 12:00:00 0,3 -1,0 2 1 SE 20 0,0
13.01.2018 11:00:00 -1,0 -1,8 2 1 SW 20 0,0
13.01.2018 10:00:00 -2,1 -2,7 4 2 ENE 20 -
13.01.2018 09:00:00 -3,4 -3,9 2 1 E 20 0,0
13.01.2018 08:00:00 -3,9 -4,4 2 1 E 20 0,0
13.01.2018 07:00:00 -3,8 -4,5 2 1 SSE 20 -
13.01.2018 06:00:00 -3,2 -4,0 0 0 N 20 0,0
13.01.2018 05:00:00 -2,5 -3,1 2 1 ESE 20 0,0
13.01.2018 04:00:00 -2,5 -3,2 0 0 N 20 -
13.01.2018 03:00:00 -2,4 -3,1 2 1 ESE 20 0,0
13.01.2018 02:00:00 -2,3 -2,9 4 2 E 20 0,0
13.01.2018 01:00:00 -2,9 -3,7 2 1 N 20 -
13.01.2018 00:00:00 -2,4 -3,5 2 1 ENE 20 0,0
12.01.2018 23:00:00 -1,2 -2,5 2 1 ESE 20 0,0
12.01.2018 22:00:00 -0,5 -1,8 2 1 ESE 20 -
12.01.2018 21:00:00 -0,5 -1,9 4 2 ESE 20 0,0
12.01.2018 20:00:00 0,0 -2,1 2 1 ENE 20 0,0
12.01.2018 19:00:00 1,5 -1,6 2 1 ENE 20 -
12.01.2018 18:00:00 4,2 -1,2 4 2 SSW 20 0,0
12.01.2018 17:00:00 6,4 -1,8 8 4 WNW 20 0,0
12.01.2018 16:00:00 7,1 -1,1 9 5 WNW 20 -
12.01.2018 15:00:00 7,0 -0,2 11 6 WNW 20 0,0
12.01.2018 14:00:00 6,2 0,1 8 4 W 20 0,0
12.01.2018 13:00:00 4,1 0,8 8 4 W 20 -
12.01.2018 12:00:00 2,8 1,0 8 4 W 20 0,0
12.01.2018 11:00:00 1,3 -0,3 4 2 NW 20 0,0
12.01.2018 10:00:00 0,6 -0,3 5 3 W 20 -
12.01.2018 09:00:00 -0,1 -0,8 2 1 SW 20 0,0
12.01.2018 08:00:00 -0,6 -1,2 8 4 WSW 20 0,0
12.01.2018 07:00:00 -2,0 -2,6 2 1 W 20 -
12.01.2018 06:00:00 -1,3 -2,3 4 2 ENE 20 0,0
12.01.2018 05:00:00 0,3 -0,7 8 4 W 20 0,0
12.01.2018 04:00:00 0,9 -0,1 5 3 W 6 -
12.01.2018 03:00:00 1,1 -0,2 5 3 W 13 0,0
12.01.2018 02:00:00 1,8 -0,6 9 5 W 16 0,0
12.01.2018 01:00:00 1,3 -1,1 8 4 W 20 -
12.01.2018 00:00:00 1,4 -1,3 4 2 WNW 6 0,0
11.01.2018 23:00:00 1,7 -2,4 9 5 W 20 0,0
11.01.2018 22:00:00 1,9 -2,8 5 3 W 20 -
11.01.2018 21:00:00 2,3 -2,4 11 6 W 20 0,0
11.01.2018 20:00:00 2,1 -2,2 11 6 W 20 0,0
11.01.2018 19:00:00 2,1 -2,8 9 5 W 20 -
11.01.2018 18:00:00 2,6 -2,7 13 7 W 20 0,0
11.01.2018 17:00:00 3,2 -2,8 18 10 WNW 20 0,0
11.01.2018 16:00:00 3,6 -2,6 18 10 WNW 20 -
11.01.2018 15:00:00 3,7 -2,3 18 10 WNW 20 0,0
11.01.2018 14:00:00 3,8 -1,8 21 11 WNW 20 0,0
11.01.2018 13:00:00 3,2 -1,8 15 8 WNW 20 -
11.01.2018 12:00:00 2,9 -1,1 15 8 W 20 0,0
11.01.2018 11:00:00 1,8 -1,8 11 6 WNW 20 0,0
11.01.2018 10:00:00 1,1 -0,8 8 4 W 20 -
11.01.2018 09:00:00 0,9 -1,0 11 6 W 20 0,0
11.01.2018 08:00:00 0,9 -0,7 13 7 W 20 0,0
11.01.2018 07:00:00 1,2 -1,0 15 8 W 20 -
11.01.2018 06:00:00 1,1 -1,1 13 7 WSW 20 0,0
11.01.2018 05:00:00 0,5 -1,4 11 6 WSW 20 0,0
11.01.2018 04:00:00 0,1 -2,0 8 4 WSW 20 -
11.01.2018 03:00:00 0,0 -1,6 9 5 WSW 20 0,0
11.01.2018 02:00:00 0,5 -1,4 9 5 W 20 0,0
11.01.2018 01:00:00 1,4 -0,8 13 7 WSW 20 -
11.01.2018 00:00:00 1,9 -0,2 11 6 WSW 20 0,0
10.01.2018 23:00:00 2,4 0,6 13 7 WSW 20 0,0
10.01.2018 22:00:00 2,5 1,2 13 7 W 20 -
10.01.2018 21:00:00 2,3 1,3 11 6 W 20 2,0
10.01.2018 20:00:00 3,7 2,5 16 9 WSW 13 0,4

tt = temperature
td = dewpoint
ff = wind speed
dd = wind direction
vv = visibility
rr = precipitation

Next stations